Time;durP1;ratioP1;P1;durP2;ratioP2;P2;SDS_P1;SDS_P2;PMS_P1;PMS_P2;Temp;Humidity;BMP_temperature;BMP_pressure;BME280_temperature;BME280_humidity;BME280_pressure;Samples;Min_cycle;Max_cycle;Signal;HPM_P1;HPM_P2
2021/08/06 00:01:36;;;;;;;3.35;2.47;;;;;;;;;;5074204;28;20055;-73
2021/08/06 00:04:02;;;;;;;3.42;2.50;;;;;;;;;;5074024;28;20028;-73
2021/08/06 00:06:28;;;;;;;4.25;2.90;;;;;;;;;;5072075;28;20104;-73
2021/08/06 00:08:55;;;;;;;4.60;2.80;;;;;;;;;;5073110;28;20096;-74
2021/08/06 00:11:31;;;;;;;5.68;2.90;;;;;;;;;;5070923;28;20371;-74
2021/08/06 00:13:58;;;;;;;6.53;2.90;;;;;;;;;;5071076;28;20032;-74
2021/08/06 00:16:25;;;;;;;4.07;2.80;;;;;;;;;;5070547;28;20032;-73
2021/08/06 00:18:51;;;;;;;5.85;3.00;;;;;;;;;;5065153;28;20045;-73
2021/08/06 00:21:18;;;;;;;8.13;3.15;;;;;;;;;;5074580;28;20024;-73
2021/08/06 00:23:47;;;;;;;4.35;2.83;;;;;;;;;;5073299;28;20387;-73
2021/08/06 00:26:13;;;;;;;3.65;2.97;;;;;;;;;;5066862;28;20390;-73
2021/08/06 00:28:40;;;;;;;7.05;2.97;;;;;;;;;;5073698;28;20032;-73
2021/08/06 00:31:06;;;;;;;6.70;3.03;;;;;;;;;;5065812;28;20025;-73
2021/08/06 00:33:32;;;;;;;13.18;3.40;;;;;;;;;;5071981;28;20032;-72
2021/08/06 00:35:58;;;;;;;5.68;2.75;;;;;;;;;;5066818;28;20024;-73
2021/08/06 00:38:25;;;;;;;5.90;2.90;;;;;;;;;;5078173;28;20020;-73
2021/08/06 00:40:51;;;;;;;6.20;2.67;;;;;;;;;;5070955;28;20025;-73
2021/08/06 00:43:17;;;;;;;5.18;2.90;;;;;;;;;;5073583;28;20048;-73
2021/08/06 00:45:44;;;;;;;8.23;3.95;;;;;;;;;;5083524;28;20047;-73
2021/08/06 00:48:10;;;;;;;3.88;3.20;;;;;;;;;;5077685;28;20024;-72
2021/08/06 00:50:37;;;;;;;5.97;3.50;;;;;;;;;;5077457;28;20024;-73
2021/08/06 00:53:04;;;;;;;11.77;3.20;;;;;;;;;;5078047;28;20082;-73
2021/08/06 00:55:30;;;;;;;5.47;3.20;;;;;;;;;;5071841;28;20023;-72
2021/08/06 00:57:56;;;;;;;8.43;3.72;;;;;;;;;;5069942;28;20031;-73
2021/08/06 01:00:22;;;;;;;4.03;3.22;;;;;;;;;;5069043;28;20063;-73
2021/08/06 01:02:54;;;;;;;9.10;3.67;;;;;;;;;;5072454;28;20040;-73
2021/08/06 01:05:22;;;;;;;5.18;3.08;;;;;;;;;;5077044;28;20024;-73
2021/08/06 01:07:51;;;;;;;7.65;3.30;;;;;;;;;;5068457;28;20085;-73
2021/08/06 01:10:20;;;;;;;5.32;2.90;;;;;;;;;;5070515;28;20033;-73
2021/08/06 01:13:03;;;;;;;8.57;3.38;;;;;;;;;;5076242;28;20024;-73
2021/08/06 01:15:29;;;;;;;4.93;2.80;;;;;;;;;;5075198;28;20024;-73
2021/08/06 01:17:57;;;;;;;5.43;3.25;;;;;;;;;;5071611;28;20040;-73
2021/08/06 01:20:24;;;;;;;7.30;2.92;;;;;;;;;;5070097;28;20035;-74
2021/08/06 01:22:54;;;;;;;8.07;3.70;;;;;;;;;;5072001;28;20075;-74
2021/08/06 01:25:39;;;;;;;6.50;3.50;;;;;;;;;;5071915;28;20012;-73
2021/08/06 01:28:05;;;;;;;5.72;3.00;;;;;;;;;;5068756;28;20107;-74
2021/08/06 01:30:32;;;;;;;3.85;2.45;;;;;;;;;;5074413;28;20652;-75
2021/08/06 01:32:58;;;;;;;4.53;2.80;;;;;;;;;;5068564;28;20085;-73
2021/08/06 01:35:24;;;;;;;5.50;2.50;;;;;;;;;;5069549;28;20020;-73
2021/08/06 01:37:50;;;;;;;4.57;2.97;;;;;;;;;;5073259;28;20046;-73
2021/08/06 01:40:17;;;;;;;5.82;2.45;;;;;;;;;;5072901;28;20020;-73
2021/08/06 01:42:46;;;;;;;6.57;3.00;;;;;;;;;;5068892;28;20044;-73
2021/08/06 01:45:14;;;;;;;3.75;2.78;;;;;;;;;;5073407;28;20035;-73
2021/08/06 01:47:40;;;;;;;4.65;2.85;;;;;;;;;;5073726;28;20032;-73
2021/08/06 01:50:08;;;;;;;6.43;3.00;;;;;;;;;;5071893;28;20089;-72
2021/08/06 01:52:37;;;;;;;5.10;2.78;;;;;;;;;;5071960;28;20039;-73
2021/08/06 01:55:03;;;;;;;4.03;2.50;;;;;;;;;;5071287;28;20052;-74
2021/08/06 01:57:31;;;;;;;3.38;2.40;;;;;;;;;;5075423;28;20112;-73
2021/08/06 01:59:58;;;;;;;6.20;2.85;;;;;;;;;;5073341;28;20119;-73
2021/08/06 02:02:25;;;;;;;5.57;2.92;;;;;;;;;;5066862;28;20028;-73
2021/08/06 02:04:51;;;;;;;5.28;2.90;;;;;;;;;;5076501;28;20077;-73
2021/08/06 02:07:17;;;;;;;7.22;2.95;;;;;;;;;;5076926;28;20026;-73
2021/08/06 02:09:44;;;;;;;4.72;3.20;;;;;;;;;;5079152;28;20437;-73
2021/08/06 02:12:10;;;;;;;5.32;2.78;;;;;;;;;;5070768;28;20085;-73
2021/08/06 02:14:36;;;;;;;2.92;2.22;;;;;;;;;;5081603;28;20498;-73
2021/08/06 02:17:03;;;;;;;6.57;2.42;;;;;;;;;;5076844;28;20127;-73
2021/08/06 02:19:29;;;;;;;3.78;2.33;;;;;;;;;;5073150;28;20028;-73
2021/08/06 02:21:57;;;;;;;5.82;2.10;;;;;;;;;;5072826;28;20027;-72
2021/08/06 02:24:24;;;;;;;2.03;1.67;;;;;;;;;;5077234;28;20020;-73
2021/08/06 02:26:50;;;;;;;4.88;2.10;;;;;;;;;;5070730;28;20081;-75
2021/08/06 02:29:18;;;;;;;2.85;2.10;;;;;;;;;;5073366;28;20027;-73
2021/08/06 02:31:45;;;;;;;3.03;2.15;;;;;;;;;;5074083;28;20081;-73
2021/08/06 02:34:12;;;;;;;2.67;2.10;;;;;;;;;;5072344;28;20025;-74
2021/08/06 02:36:38;;;;;;;5.05;2.10;;;;;;;;;;5073598;28;20040;-74
2021/08/06 02:39:11;;;;;;;3.42;1.95;;;;;;;;;;5074531;28;20191;-73
2021/08/06 02:41:37;;;;;;;2.38;1.83;;;;;;;;;;5073722;28;20075;-73
2021/08/06 02:44:03;;;;;;;2.70;1.90;;;;;;;;;;5069600;28;20028;-73
2021/08/06 02:46:30;;;;;;;3.97;2.20;;;;;;;;;;5076212;28;20012;-73
2021/08/06 02:48:56;;;;;;;3.70;2.00;;;;;;;;;;5077479;28;20031;-73
2021/08/06 02:51:22;;;;;;;2.40;1.90;;;;;;;;;;5076859;28;20035;-73
2021/08/06 02:53:48;;;;;;;4.93;2.67;;;;;;;;;;5088845;28;20430;-73
2021/08/06 02:56:14;;;;;;;3.38;2.05;;;;;;;;;;5072768;28;20024;-73
2021/08/06 02:58:40;;;;;;;3.95;2.50;;;;;;;;;;5069638;28;20415;-73
2021/08/06 03:01:07;;;;;;;3.28;2.42;;;;;;;;;;5077336;28;20233;-73
2021/08/06 03:03:33;;;;;;;3.47;2.45;;;;;;;;;;5069885;28;20045;-73
2021/08/06 03:05:59;;;;;;;2.55;2.10;;;;;;;;;;5076713;28;20036;-73
2021/08/06 03:08:25;;;;;;;3.38;2.25;;;;;;;;;;5081970;28;20384;-73
2021/08/06 03:10:51;;;;;;;3.00;2.10;;;;;;;;;;5082021;28;20024;-74
2021/08/06 03:13:17;;;;;;;2.95;2.08;;;;;;;;;;5083387;28;20024;-74
2021/08/06 03:15:43;;;;;;;3.83;2.58;;;;;;;;;;5082488;28;20055;-73
2021/08/06 03:18:11;;;;;;;2.72;2.13;;;;;;;;;;5080380;28;20040;-73
2021/08/06 03:20:38;;;;;;;3.83;2.35;;;;;;;;;;5083615;28;20070;-73
2021/08/06 03:23:04;;;;;;;2.25;2.05;;;;;;;;;;5081667;28;20387;-74
2021/08/06 03:25:31;;;;;;;4.18;2.13;;;;;;;;;;5083758;28;20016;-73
2021/08/06 03:27:58;;;;;;;3.58;2.30;;;;;;;;;;5083381;28;20613;-73
2021/08/06 03:30:24;;;;;;;3.20;2.40;;;;;;;;;;5083404;28;20028;-74
2021/08/06 03:32:50;;;;;;;3.60;2.60;;;;;;;;;;5081057;28;20136;-73
2021/08/06 03:35:17;;;;;;;3.03;2.33;;;;;;;;;;5081959;28;20020;-73
2021/08/06 03:37:44;;;;;;;3.30;2.28;;;;;;;;;;5082947;28;20024;-73
2021/08/06 03:40:11;;;;;;;3.13;2.40;;;;;;;;;;5083239;28;20030;-73
2021/08/06 03:42:37;;;;;;;2.95;2.20;;;;;;;;;;5074791;28;20409;-73
2021/08/06 03:45:04;;;;;;;4.70;2.50;;;;;;;;;;5083102;28;20211;-73
2021/08/06 03:47:30;;;;;;;5.15;3.10;;;;;;;;;;5081426;28;20039;-72
2021/08/06 03:49:56;;;;;;;3.22;2.38;;;;;;;;;;5075009;28;20024;-73
2021/08/06 03:52:22;;;;;;;4.20;2.58;;;;;;;;;;5082638;28;20020;-73
2021/08/06 03:54:48;;;;;;;3.63;2.05;;;;;;;;;;5082711;28;20032;-73
2021/08/06 03:57:15;;;;;;;2.67;2.13;;;;;;;;;;5082909;28;20088;-73
2021/08/06 03:59:41;;;;;;;2.83;2.20;;;;;;;;;;5068457;28;20034;-73
2021/08/06 04:02:09;;;;;;;4.05;2.78;;;;;;;;;;5071892;28;20111;-73
2021/08/06 04:04:36;;;;;;;4.65;2.10;;;;;;;;;;5074087;28;20023;-73
2021/08/06 04:07:02;;;;;;;3.58;2.72;;;;;;;;;;5069065;28;20023;-73
2021/08/06 04:09:28;;;;;;;4.60;2.60;;;;;;;;;;5075571;28;20038;-73
2021/08/06 04:11:54;;;;;;;3.67;2.05;;;;;;;;;;5074640;28;20038;-73
2021/08/06 04:14:20;;;;;;;3.97;2.25;;;;;;;;;;5080913;28;20028;-73
2021/08/06 04:16:48;;;;;;;3.97;1.83;;;;;;;;;;5079959;28;20052;-74
2021/08/06 04:19:14;;;;;;;3.03;2.20;;;;;;;;;;5082414;28;20089;-73
2021/08/06 04:21:40;;;;;;;3.17;2.25;;;;;;;;;;5082314;28;20031;-73
2021/08/06 04:24:06;;;;;;;3.97;2.03;;;;;;;;;;5082457;28;20032;-74
2021/08/06 04:26:33;;;;;;;2.80;2.00;;;;;;;;;;5081749;28;20050;-73
2021/08/06 04:28:59;;;;;;;2.65;2.10;;;;;;;;;;5080673;28;20036;-74
2021/08/06 04:31:25;;;;;;;3.85;2.20;;;;;;;;;;5080619;28;20023;-73
2021/08/06 04:33:51;;;;;;;2.47;2.03;;;;;;;;;;5082238;28;20416;-74
2021/08/06 04:36:17;;;;;;;3.75;2.10;;;;;;;;;;5081638;28;20031;-73
2021/08/06 04:38:44;;;;;;;3.35;2.35;;;;;;;;;;5082056;28;20364;-73
2021/08/06 04:41:10;;;;;;;4.43;2.28;;;;;;;;;;5080297;28;20093;-73
2021/08/06 04:43:39;;;;;;;3.60;2.20;;;;;;;;;;5082156;28;20842;-73
2021/08/06 04:46:05;;;;;;;3.40;2.00;;;;;;;;;;5077269;28;20602;-73
2021/08/06 04:48:31;;;;;;;3.60;2.10;;;;;;;;;;5078657;28;20032;-73
2021/08/06 04:50:59;;;;;;;3.97;2.10;;;;;;;;;;5075328;28;20024;-73
2021/08/06 04:53:28;;;;;;;4.68;2.25;;;;;;;;;;5081198;28;20554;-73
2021/08/06 04:56:02;;;;;;;2.83;2.05;;;;;;;;;;5082088;28;20031;-73
2021/08/06 04:58:31;;;;;;;2.85;2.13;;;;;;;;;;5070683;28;20028;-73
2021/08/06 05:00:57;;;;;;;3.67;2.60;;;;;;;;;;5082296;28;20111;-73
2021/08/06 05:03:25;;;;;;;3.60;2.20;;;;;;;;;;5079492;28;20044;-75
2021/08/06 05:05:54;;;;;;;3.35;2.40;;;;;;;;;;5081481;28;20114;-73
2021/08/06 05:08:20;;;;;;;5.35;2.35;;;;;;;;;;5081582;28;20103;-73
2021/08/06 05:10:46;;;;;;;4.32;2.53;;;;;;;;;;5078526;28;20043;-73
2021/08/06 05:13:12;;;;;;;4.65;2.53;;;;;;;;;;5081627;28;20024;-73
2021/08/06 05:15:38;;;;;;;2.85;2.47;;;;;;;;;;5081719;28;20024;-73
2021/08/06 05:18:05;;;;;;;6.05;2.40;;;;;;;;;;5074954;28;20101;-73
2021/08/06 05:20:32;;;;;;;5.22;2.25;;;;;;;;;;5071951;28;20020;-74
2021/08/06 05:22:58;;;;;;;4.20;2.55;;;;;;;;;;5081273;28;20081;-73
2021/08/06 05:25:24;;;;;;;3.00;2.35;;;;;;;;;;5079403;28;20038;-73
2021/08/06 05:27:51;;;;;;;2.45;2.17;;;;;;;;;;5081379;28;20035;-74
2021/08/06 05:30:21;;;;;;;4.18;2.50;;;;;;;;;;5081896;28;20020;-73
2021/08/06 05:32:48;;;;;;;6.35;2.38;;;;;;;;;;5079752;28;20147;-73
2021/08/06 05:35:19;;;;;;;3.92;2.55;;;;;;;;;;5062570;28;20400;-73
2021/08/06 05:37:49;;;;;;;9.25;2.95;;;;;;;;;;5066529;28;20550;-71
2021/08/06 05:40:18;;;;;;;8.52;3.35;;;;;;;;;;5072955;28;20069;-72
2021/08/06 05:42:46;;;;;;;5.75;3.03;;;;;;;;;;5069121;28;20032;-73
2021/08/06 05:45:21;;;;;;;5.68;2.80;;;;;;;;;;5073194;28;20020;-72
2021/08/06 05:47:51;;;;;;;5.20;2.70;;;;;;;;;;5070275;28;20024;-72
2021/08/06 05:50:17;;;;;;;9.38;3.33;;;;;;;;;;5074060;28;20008;-72
2021/08/06 05:52:44;;;;;;;5.65;2.45;;;;;;;;;;5069071;28;20026;-73
2021/08/06 05:55:10;;;;;;;7.68;2.35;;;;;;;;;;5072153;28;20120;-72
2021/08/06 05:57:36;;;;;;;6.30;2.83;;;;;;;;;;5069320;28;20029;-72
2021/08/06 06:00:04;;;;;;;5.60;2.30;;;;;;;;;;5068870;28;20066;-72
2021/08/06 06:02:30;;;;;;;4.97;2.38;;;;;;;;;;5071334;28;20048;-73
2021/08/06 06:04:56;;;;;;;5.40;2.40;;;;;;;;;;5068964;28;20052;-72
2021/08/06 06:07:22;;;;;;;3.25;2.30;;;;;;;;;;5072992;28;20026;-73
2021/08/06 06:09:48;;;;;;;3.70;1.83;;;;;;;;;;5068729;28;20029;-73
2021/08/06 06:12:14;;;;;;;5.53;2.63;;;;;;;;;;5082899;28;20024;-74
2021/08/06 06:14:40;;;;;;;3.00;2.03;;;;;;;;;;5075421;28;20032;-73
2021/08/06 06:17:07;;;;;;;3.85;2.33;;;;;;;;;;5087236;28;20071;-72
2021/08/06 06:19:33;;;;;;;5.13;2.10;;;;;;;;;;5078226;28;20107;-72
2021/08/06 06:21:59;;;;;;;3.50;2.42;;;;;;;;;;5084211;28;20093;-73
2021/08/06 06:24:25;;;;;;;2.75;1.95;;;;;;;;;;5085213;28;20311;-71
2021/08/06 06:26:52;;;;;;;3.97;1.90;;;;;;;;;;5075166;28;20040;-72
2021/08/06 06:29:18;;;;;;;8.05;2.33;;;;;;;;;;5072346;28;20021;-73
2021/08/06 06:31:44;;;;;;;4.00;2.42;;;;;;;;;;5077058;28;20029;-72
2021/08/06 06:34:10;;;;;;;2.50;2.00;;;;;;;;;;5072833;28;20100;-72
2021/08/06 06:36:36;;;;;;;3.53;2.25;;;;;;;;;;5062965;28;20086;-73
2021/08/06 06:39:03;;;;;;;5.78;2.03;;;;;;;;;;5063302;28;20070;-71
2021/08/06 06:41:29;;;;;;;4.35;2.30;;;;;;;;;;5066132;28;21812;-72
2021/08/06 06:43:55;;;;;;;5.63;2.22;;;;;;;;;;5063884;28;20032;-71
2021/08/06 06:46:22;;;;;;;7.82;2.72;;;;;;;;;;5064442;28;20544;-71
2021/08/06 06:48:48;;;;;;;4.07;2.63;;;;;;;;;;5066505;28;20444;-72
2021/08/06 06:51:14;;;;;;;6.40;2.33;;;;;;;;;;5062804;28;20031;-72
2021/08/06 06:53:40;;;;;;;4.47;2.20;;;;;;;;;;5078288;28;20047;-72
2021/08/06 06:56:06;;;;;;;3.70;2.22;;;;;;;;;;5077812;28;20020;-73
2021/08/06 06:58:33;;;;;;;2.67;2.20;;;;;;;;;;5075995;28;20344;-71
2021/08/06 07:00:59;;;;;;;6.63;2.88;;;;;;;;;;5078865;28;20115;-73
2021/08/06 07:03:25;;;;;;;4.38;2.30;;;;;;;;;;5073074;28;20040;-73
2021/08/06 07:05:51;;;;;;;6.53;2.30;;;;;;;;;;5073960;28;20024;-72
2021/08/06 07:08:17;;;;;;;6.65;2.50;;;;;;;;;;5065114;28;20086;-72
2021/08/06 07:10:43;;;;;;;3.80;2.58;;;;;;;;;;5066711;28;20024;-72
2021/08/06 07:13:10;;;;;;;5.32;2.42;;;;;;;;;;5063587;28;20032;-72
2021/08/06 07:15:36;;;;;;;3.90;2.28;;;;;;;;;;5061850;28;20037;-72
2021/08/06 07:18:03;;;;;;;4.28;2.22;;;;;;;;;;5065040;28;20101;-72
2021/08/06 07:20:29;;;;;;;3.90;2.35;;;;;;;;;;5067352;28;20028;-72
2021/08/06 07:22:56;;;;;;;6.07;2.90;;;;;;;;;;5066996;28;20043;-69
2021/08/06 07:25:22;;;;;;;4.07;2.40;;;;;;;;;;5062774;28;20132;-72
2021/08/06 07:27:48;;;;;;;3.78;2.65;;;;;;;;;;5065003;28;20268;-70
2021/08/06 07:30:15;;;;;;;3.45;2.55;;;;;;;;;;5063056;28;20024;-71
2021/08/06 07:32:42;;;;;;;4.28;2.55;;;;;;;;;;5065586;28;20069;-72
2021/08/06 07:35:08;;;;;;;6.70;2.67;;;;;;;;;;5064581;28;20106;-68
2021/08/06 07:37:34;;;;;;;5.50;2.67;;;;;;;;;;5063380;28;20020;-70
2021/08/06 07:40:01;;;;;;;7.18;2.53;;;;;;;;;;5065855;28;20093;-70
2021/08/06 07:42:27;;;;;;;3.53;2.40;;;;;;;;;;5064387;28;20056;-69
2021/08/06 07:44:53;;;;;;;6.25;3.00;;;;;;;;;;5062899;28;20119;-69
2021/08/06 07:47:20;;;;;;;3.50;2.63;;;;;;;;;;5063064;28;20020;-69
2021/08/06 07:49:46;;;;;;;3.75;2.33;;;;;;;;;;5062283;28;20032;-70
2021/08/06 07:52:13;;;;;;;5.25;2.35;;;;;;;;;;5067995;28;20505;-70
2021/08/06 07:54:39;;;;;;;3.38;2.50;;;;;;;;;;5063530;28;20028;-68
2021/08/06 07:57:05;;;;;;;4.95;3.00;;;;;;;;;;5072011;28;20032;-70
2021/08/06 07:59:32;;;;;;;4.10;2.65;;;;;;;;;;5059863;28;20024;-69
2021/08/06 08:01:58;;;;;;;7.38;2.70;;;;;;;;;;5059636;28;20611;-70
2021/08/06 08:04:24;;;;;;;5.00;2.50;;;;;;;;;;5063465;28;20031;-71
2021/08/06 08:06:50;;;;;;;6.55;2.60;;;;;;;;;;5076175;28;20678;-72
2021/08/06 08:09:16;;;;;;;6.82;2.63;;;;;;;;;;5070431;28;20628;-70
2021/08/06 08:11:42;;;;;;;3.95;2.38;;;;;;;;;;5074329;28;20028;-72
2021/08/06 08:14:08;;;;;;;7.05;2.60;;;;;;;;;;5066210;28;20397;-71
2021/08/06 08:16:35;;;;;;;4.18;2.25;;;;;;;;;;5082602;28;20032;-71
2021/08/06 08:19:01;;;;;;;5.40;2.53;;;;;;;;;;5083946;28;20403;-69
2021/08/06 08:21:27;;;;;;;3.63;2.47;;;;;;;;;;5070270;28;20059;-70
2021/08/06 08:23:53;;;;;;;6.28;2.20;;;;;;;;;;5075731;28;20047;-70
2021/08/06 08:26:23;;;;;;;3.90;2.45;;;;;;;;;;5071174;28;20043;-69
2021/08/06 08:28:49;;;;;;;3.20;2.40;;;;;;;;;;5070928;28;20028;-69
2021/08/06 08:31:17;;;;;;;5.15;2.28;;;;;;;;;;5071155;28;20440;-70
2021/08/06 08:33:43;;;;;;;6.20;2.35;;;;;;;;;;5075168;28;20039;-69
2021/08/06 08:36:09;;;;;;;3.03;2.10;;;;;;;;;;5081733;28;20036;-71
2021/08/06 08:38:36;;;;;;;6.55;2.95;;;;;;;;;;5067109;28;20127;-71
2021/08/06 08:41:03;;;;;;;4.03;2.20;;;;;;;;;;5074351;28;20039;-70
2021/08/06 08:43:29;;;;;;;2.92;2.17;;;;;;;;;;5061281;28;20584;-70
2021/08/06 08:45:56;;;;;;;4.90;2.45;;;;;;;;;;5060687;28;20131;-69
2021/08/06 08:48:23;;;;;;;5.78;2.50;;;;;;;;;;5063342;28;20082;-70
2021/08/06 08:50:52;;;;;;;4.40;2.22;;;;;;;;;;5066508;28;20028;-71
2021/08/06 08:53:18;;;;;;;3.90;2.22;;;;;;;;;;5078155;28;20028;-71
2021/08/06 08:55:44;;;;;;;3.45;2.45;;;;;;;;;;5070979;28;20069;-71
2021/08/06 08:58:11;;;;;;;8.15;2.55;;;;;;;;;;5071294;28;20056;-70
2021/08/06 09:00:37;;;;;;;6.30;2.88;;;;;;;;;;5074659;28;20417;-70
2021/08/06 09:03:03;;;;;;;5.10;2.83;;;;;;;;;;5060415;28;20660;-71
2021/08/06 09:05:29;;;;;;;4.28;2.47;;;;;;;;;;5066174;28;20047;-70
2021/08/06 09:07:56;;;;;;;5.13;2.60;;;;;;;;;;5061524;28;20032;-70
2021/08/06 09:10:27;;;;;;;4.22;2.35;;;;;;;;;;5059860;28;20017;-70
2021/08/06 09:12:53;;;;;;;5.93;2.72;;;;;;;;;;5063272;28;20053;-70
2021/08/06 09:15:39;;;;;;;3.25;2.47;;;;;;;;;;5062870;28;20016;-70
2021/08/06 09:18:26;;;;;;;4.35;2.22;;;;;;;;;;5064472;28;20124;-70
2021/08/06 09:20:53;;;;;;;5.07;2.83;;;;;;;;;;5069471;28;20028;-71
2021/08/06 09:23:38;;;;;;;4.28;2.40;;;;;;;;;;5083103;28;20043;-70
2021/08/06 09:26:04;;;;;;;3.97;2.50;;;;;;;;;;5073780;28;20591;-71
2021/08/06 09:28:30;;;;;;;4.85;2.28;;;;;;;;;;5074942;28;20082;-70
2021/08/06 09:30:57;;;;;;;3.92;2.13;;;;;;;;;;5083837;28;20024;-70
2021/08/06 09:33:33;;;;;;;3.90;2.10;;;;;;;;;;5081594;28;20024;-70
2021/08/06 09:36:16;;;;;;;4.50;2.55;;;;;;;;;;5065934;28;20430;-70
2021/08/06 09:38:42;;;;;;;8.35;3.15;;;;;;;;;;5064453;28;20025;-70
2021/08/06 09:41:28;;;;;;;10.93;4.65;;;;;;;;;;5069387;28;20024;-71
2021/08/06 09:44:14;;;;;;;12.15;6.75;;;;;;;;;;5064371;28;20150;-71
2021/08/06 09:46:40;;;;;;;14.07;11.15;;;;;;;;;;5068257;28;20042;-71
2021/08/06 09:49:07;;;;;;;14.52;9.90;;;;;;;;;;5065825;28;20079;-71
2021/08/06 09:51:36;;;;;;;10.93;7.60;;;;;;;;;;5070227;28;20043;-71
2021/08/06 09:54:17;;;;;;;28.23;21.48;;;;;;;;;;5078813;28;20024;-71
2021/08/06 09:56:43;;;;;;;74.68;51.42;;;;;;;;;;5083574;28;20021;-71
2021/08/06 09:59:09;;;;;;;57.90;37.15;;;;;;;;;;5094606;28;20032;-71
2021/08/06 10:01:36;;;;;;;27.52;15.07;;;;;;;;;;5081046;28;20024;-71
2021/08/06 10:04:20;;;;;;;10.27;6.45;;;;;;;;;;5083817;28;20440;-71
2021/08/06 10:06:57;;;;;;;5.95;3.38;;;;;;;;;;5082799;28;20818;-71
2021/08/06 10:09:23;;;;;;;5.95;3.05;;;;;;;;;;5071661;28;20028;-71
2021/08/06 10:11:49;;;;;;;5.25;2.90;;;;;;;;;;5074985;28;20020;-71
2021/08/06 10:14:16;;;;;;;5.55;2.88;;;;;;;;;;5081660;28;20028;-71
2021/08/06 10:16:42;;;;;;;4.25;2.97;;;;;;;;;;5081272;28;20040;-71
2021/08/06 10:19:09;;;;;;;5.15;2.97;;;;;;;;;;5081234;28;20036;-71
2021/08/06 10:21:35;;;;;;;5.63;3.08;;;;;;;;;;5082788;28;20108;-71
2021/08/06 10:24:02;;;;;;;5.85;2.65;;;;;;;;;;5082277;28;20035;-71
2021/08/06 10:26:28;;;;;;;6.82;2.45;;;;;;;;;;5069882;28;20028;-71
2021/08/06 10:28:54;;;;;;;6.82;3.00;;;;;;;;;;5083278;28;20035;-71
2021/08/06 10:31:24;;;;;;;4.97;3.05;;;;;;;;;;5081834;28;20024;-71
2021/08/06 10:34:09;;;;;;;4.85;2.35;;;;;;;;;;5082938;28;20488;-71
2021/08/06 10:36:41;;;;;;;5.90;2.55;;;;;;;;;;5079995;28;20039;-71
2021/08/06 10:39:37;;;;;;;3.38;2.30;;;;;;;;;;5082830;28;20511;-71
2021/08/06 10:42:04;;;;;;;6.88;3.40;;;;;;;;;;5053339;28;20495;-71
2021/08/06 10:44:49;;;;;;;3.80;2.38;;;;;;;;;;5082431;28;20031;-71
2021/08/06 10:47:15;;;;;;;4.47;2.13;;;;;;;;;;5069994;28;20059;-71
2021/08/06 10:49:41;;;;;;;7.97;3.20;;;;;;;;;;5081591;28;20024;-71
2021/08/06 10:52:12;;;;;;;5.10;2.30;;;;;;;;;;5083261;28;20031;-71
2021/08/06 10:54:38;;;;;;;7.60;2.83;;;;;;;;;;5082755;28;20084;-71
2021/08/06 10:57:16;;;;;;;4.03;2.30;;;;;;;;;;5079940;28;20028;-71
2021/08/06 10:59:43;;;;;;;5.05;2.92;;;;;;;;;;5081442;28;20384;-71
2021/08/06 11:02:27;;;;;;;8.05;3.42;;;;;;;;;;5082046;28;20020;-72
2021/08/06 11:04:53;;;;;;;3.20;2.35;;;;;;;;;;5081879;28;20029;-71
2021/08/06 11:07:38;;;;;;;4.63;2.88;;;;;;;;;;5080638;28;20439;-71
2021/08/06 11:10:05;;;;;;;5.70;2.70;;;;;;;;;;5083218;28;20075;-71
2021/08/06 11:12:35;;;;;;;4.07;2.17;;;;;;;;;;5082355;28;20530;-71
2021/08/06 11:15:03;;;;;;;4.07;2.67;;;;;;;;;;5083116;28;20035;-71
2021/08/06 11:17:34;;;;;;;7.10;2.40;;;;;;;;;;5082777;28;20055;-71
2021/08/06 11:20:19;;;;;;;3.72;1.98;;;;;;;;;;5082980;28;20105;-71
2021/08/06 11:22:46;;;;;;;5.43;2.63;;;;;;;;;;5082537;28;20545;-71
2021/08/06 11:25:14;;;;;;;6.28;2.53;;;;;;;;;;5083242;28;20485;-71
2021/08/06 11:27:44;;;;;;;5.20;2.40;;;;;;;;;;5082894;28;20492;-71
2021/08/06 11:30:12;;;;;;;4.32;2.50;;;;;;;;;;5080851;28;20407;-71
2021/08/06 11:32:52;;;;;;;4.65;2.65;;;;;;;;;;5082769;28;20056;-71
2021/08/06 11:35:19;;;;;;;4.78;2.70;;;;;;;;;;5081596;28;20027;-71
2021/08/06 11:37:47;;;;;;;6.10;2.78;;;;;;;;;;5080784;28;20119;-71
2021/08/06 11:40:14;;;;;;;4.40;2.60;;;;;;;;;;5082833;28;20035;-71
2021/08/06 11:42:41;;;;;;;4.82;2.65;;;;;;;;;;5082156;28;20050;-71
2021/08/06 11:45:08;;;;;;;5.57;2.38;;;;;;;;;;5079840;28;20028;-71
2021/08/06 11:47:34;;;;;;;2.92;2.15;;;;;;;;;;5082559;28;20115;-71
2021/08/06 11:50:00;;;;;;;5.40;2.78;;;;;;;;;;5082471;28;20012;-71
2021/08/06 11:52:43;;;;;;;4.78;2.42;;;;;;;;;;5082329;28;20030;-71
2021/08/06 11:55:10;;;;;;;4.90;2.90;;;;;;;;;;5080922;28;20188;-71
2021/08/06 11:57:47;;;;;;;6.47;2.58;;;;;;;;;;5073731;28;20025;-71
2021/08/06 12:00:14;;;;;;;4.40;2.10;;;;;;;;;;5065928;28;20704;-71
2021/08/06 12:02:40;;;;;;;5.70;2.90;;;;;;;;;;5064377;28;20529;-72
2021/08/06 12:05:25;;;;;;;7.20;2.30;;;;;;;;;;5062526;28;20029;-72
2021/08/06 12:07:51;;;;;;;7.22;3.45;;;;;;;;;;5063655;28;20040;-71
2021/08/06 12:10:18;;;;;;;3.88;2.83;;;;;;;;;;5063769;28;20070;-72
2021/08/06 12:12:44;;;;;;;11.20;3.03;;;;;;;;;;5063819;28;20081;-71
2021/08/06 12:15:26;;;;;;;5.30;2.85;;;;;;;;;;5061871;28;20020;-70
2021/08/06 12:18:12;;;;;;;6.55;3.35;;;;;;;;;;5061569;28;20213;-71
2021/08/06 12:20:39;;;;;;;6.93;3.75;;;;;;;;;;5060663;28;20023;-71
2021/08/06 12:23:06;;;;;;;8.40;3.58;;;;;;;;;;5065349;28;20040;-71
2021/08/06 12:25:33;;;;;;;8.55;3.95;;;;;;;;;;5063262;28;20064;-70
2021/08/06 12:28:00;;;;;;;10.90;6.75;;;;;;;;;;5063285;28;20040;-70
2021/08/06 12:30:28;;;;;;;8.23;4.55;;;;;;;;;;5063159;28;20045;-70
2021/08/06 12:32:54;;;;;;;13.18;6.95;;;;;;;;;;5062410;28;20612;-72
2021/08/06 12:35:21;;;;;;;7.40;4.97;;;;;;;;;;5059380;28;20029;-70
2021/08/06 12:37:48;;;;;;;6.18;3.35;;;;;;;;;;5063460;28;20059;-72
2021/08/06 12:40:14;;;;;;;6.82;3.63;;;;;;;;;;5064623;28;20020;-71
2021/08/06 12:42:40;;;;;;;9.20;4.30;;;;;;;;;;5061735;28;20496;-71
2021/08/06 12:45:07;;;;;;;7.70;4.20;;;;;;;;;;5064456;28;20042;-69
2021/08/06 12:48:00;;;;;;;12.35;4.95;;;;;;;;;;5078587;28;20034;-71
2021/08/06 12:50:30;;;;;;;7.63;3.55;;;;;;;;;;5063657;28;20047;-71
2021/08/06 12:52:59;;;;;;;6.25;3.13;;;;;;;;;;5069303;28;20081;-70
2021/08/06 12:55:26;;;;;;;5.10;3.05;;;;;;;;;;5078510;28;20481;-70
2021/08/06 12:57:56;;;;;;;6.80;3.03;;;;;;;;;;5074394;28;20032;-72
2021/08/06 13:00:29;;;;;;;6.32;2.50;;;;;;;;;;5077197;28;20111;-71
2021/08/06 13:03:11;;;;;;;6.18;2.72;;;;;;;;;;5076971;28;20077;-70
2021/08/06 13:05:56;;;;;;;9.48;2.72;;;;;;;;;;5078558;28;20059;-72
2021/08/06 13:08:37;;;;;;;5.63;2.63;;;;;;;;;;5078386;28;20025;-71
2021/08/06 13:11:03;;;;;;;;;;;;;;;;;;5074748;28;20028;-72
2021/08/06 13:13:31;;;;;;;4.93;2.45;;;;;;;;;;5069227;28;20304;-71
2021/08/06 13:15:57;;;;;;;8.18;2.60;;;;;;;;;;5081451;28;20738;-72
2021/08/06 13:18:23;;;;;;;8.63;2.75;;;;;;;;;;5068489;28;20487;-71
2021/08/06 13:20:49;;;;;;;3.33;2.28;;;;;;;;;;5080551;28;20038;-70
2021/08/06 13:23:16;;;;;;;16.10;2.75;;;;;;;;;;5079036;28;20024;-72
2021/08/06 13:25:43;;;;;;;6.18;2.53;;;;;;;;;;5081431;28;20476;-72
2021/08/06 13:28:09;;;;;;;6.85;2.50;;;;;;;;;;5080655;28;20028;-73
2021/08/06 13:30:36;;;;;;;4.38;2.30;;;;;;;;;;5081517;28;20423;-73
2021/08/06 13:33:02;;;;;;;4.63;2.10;;;;;;;;;;5080440;28;20024;-71
2021/08/06 13:35:28;;;;;;;5.60;2.35;;;;;;;;;;5079246;28;20097;-71
2021/08/06 13:37:57;;;;;;;4.00;1.95;;;;;;;;;;5076135;28;20025;-72
2021/08/06 13:40:24;;;;;;;6.53;2.40;;;;;;;;;;5076768;28;20028;-71
2021/08/06 13:42:50;;;;;;;3.35;1.98;;;;;;;;;;5071968;28;20847;-71
2021/08/06 13:45:16;;;;;;;6.15;2.38;;;;;;;;;;5066551;28;20017;-71
2021/08/06 13:47:43;;;;;;;4.07;2.40;;;;;;;;;;5072537;28;20018;-72
2021/08/06 13:50:10;;;;;;;3.55;2.47;;;;;;;;;;5084216;28;20130;-72
2021/08/06 13:52:36;;;;;;;5.20;2.38;;;;;;;;;;5076194;28;20043;-71
2021/08/06 13:55:03;;;;;;;7.03;2.40;;;;;;;;;;5071062;28;20464;-71
2021/08/06 13:57:29;;;;;;;6.07;2.20;;;;;;;;;;5074684;28;20016;-72
2021/08/06 13:59:55;;;;;;;5.30;2.40;;;;;;;;;;5073722;28;20046;-72
2021/08/06 14:02:22;;;;;;;4.07;2.00;;;;;;;;;;5080113;28;20731;-70
2021/08/06 14:04:48;;;;;;;4.18;2.30;;;;;;;;;;5077101;28;20059;-73
2021/08/06 14:07:16;;;;;;;5.45;2.50;;;;;;;;;;5080235;28;20024;-71
2021/08/06 14:09:44;;;;;;;4.70;2.03;;;;;;;;;;5082993;28;20032;-72
2021/08/06 14:12:10;;;;;;;5.47;2.17;;;;;;;;;;5084164;28;20067;-71
2021/08/06 14:14:36;;;;;;;5.50;2.35;;;;;;;;;;5084299;28;20024;-74
2021/08/06 14:17:03;;;;;;;4.68;2.55;;;;;;;;;;5081354;28;20763;-73
2021/08/06 14:19:29;;;;;;;2.92;2.10;;;;;;;;;;5083347;28;20127;-73
2021/08/06 14:21:56;;;;;;;3.88;2.47;;;;;;;;;;5084303;28;20062;-73
2021/08/06 14:24:22;;;;;;;5.22;2.50;;;;;;;;;;5082048;28;20067;-72
2021/08/06 14:26:48;;;;;;;3.60;2.10;;;;;;;;;;5070406;28;20028;-73
2021/08/06 14:29:14;;;;;;;5.47;2.53;;;;;;;;;;5066918;28;20020;-72
2021/08/06 14:31:41;;;;;;;6.28;2.40;;;;;;;;;;5065229;28;20024;-73
2021/08/06 14:34:07;;;;;;;3.05;1.88;;;;;;;;;;5074653;28;20028;-71
2021/08/06 14:36:34;;;;;;;4.10;2.40;;;;;;;;;;5078179;28;20150;-73
2021/08/06 14:39:03;;;;;;;3.50;2.15;;;;;;;;;;5081380;28;20463;-73
2021/08/06 14:41:30;;;;;;;3.85;1.98;;;;;;;;;;5075837;28;20059;-72
2021/08/06 14:43:56;;;;;;;5.20;2.40;;;;;;;;;;5080773;28;20048;-72
2021/08/06 14:46:22;;;;;;;4.88;2.40;;;;;;;;;;5079556;28;20779;-70
2021/08/06 14:48:49;;;;;;;5.25;2.42;;;;;;;;;;5075120;28;20028;-72